Time;durP1;ratioP1;P1;durP2;ratioP2;P2;SDS_P1;SDS_P2;PMS_P1;PMS_P2;Temp;Humidity;BMP_temperature;BMP_pressure;BME280_temperature;BME280_humidity;BME280_pressure;Samples;Min_cycle;Max_cycle;Signal;HPM_P1;HPM_P2
2022/11/04 00:01:43;;;;;;;18.35;11.77;;;;;;;12.29;72.40;100796.13;4988481;28;20109;-71
2022/11/04 00:04:11;;;;;;;20.30;12.57;;;;;;;12.23;71.77;100788.16;4984882;28;20506;-71
2022/11/04 00:06:40;;;;;;;18.52;12.38;;;;;;;12.35;72.02;100810.13;4988472;28;20885;-71
2022/11/04 00:09:08;;;;;;;24.45;12.35;;;;;;;12.36;72.34;100802.44;4988174;28;20045;-70
2022/11/04 00:14:18;;;;;;;22.88;12.38;;;;;;;11.97;75.08;100769.13;4988542;28;20092;-72
2022/11/04 00:19:28;;;;;;;19.20;11.98;;;;;;;12.15;74.05;100805.13;4988335;28;20545;-71
2022/11/04 00:30:13;;;;;;;19.58;11.70;;;;;;;12.06;74.42;100804.78;4948846;28;20055;-70
2022/11/04 00:35:22;;;;;;;16.98;10.82;;;;;;;11.98;75.37;100799.34;4949225;29;20082;-70
2022/11/04 00:37:48;;;;;;;17.73;11.80;;;;;;;11.99;75.62;100801.09;4948797;29;20043;-71
2022/11/04 00:40:15;;;;;;;17.70;10.88;;;;;;;11.94;75.43;100789.69;4949325;29;20036;-71
2022/11/04 00:42:43;;;;;;;21.10;11.45;;;;;;;12.02;75.43;100798.63;4949316;29;20047;-71
2022/11/04 00:45:09;;;;;;;18.70;11.05;;;;;;;11.98;75.80;100795.03;4949105;28;20043;-70
2022/11/04 00:47:34;;;;;;;17.08;10.35;;;;;;;11.97;75.57;100797.56;4949344;29;20613;-70
2022/11/04 00:49:59;;;;;;;19.65;10.25;;;;;;;11.95;75.26;100788.84;4949037;29;20067;-70
2022/11/04 00:52:25;;;;;;;18.15;10.57;;;;;;;11.96;74.64;100794.13;4948906;28;20070;-71
2022/11/04 00:54:50;;;;;;;16.55;10.95;;;;;;;11.77;75.22;100784.75;4949364;29;20039;-70
2022/11/04 00:57:16;;;;;;;17.80;11.38;;;;;;;11.85;74.34;100789.34;4949330;29;20043;-71
2022/11/04 00:59:41;;;;;;;18.15;10.27;;;;;;;11.60;76.39;100796.16;4949459;29;20437;-70
2022/11/04 01:02:08;;;;;;;18.88;10.77;;;;;;;11.44;76.93;100790.41;4949040;28;20139;-71
2022/11/04 01:04:34;;;;;;;18.65;9.88;;;;;;;11.37;77.96;100783.25;4998325;28;20037;-71
2022/11/04 01:07:01;;;;;;;23.10;11.30;;;;;;;11.30;78.03;100778.66;5029437;28;20547;-69
2022/11/04 01:09:26;;;;;;;17.65;10.50;;;;;;;11.24;78.54;100775.81;5029578;28;20083;-69
2022/11/04 01:11:52;;;;;;;17.23;10.38;;;;;;;11.13;78.80;100780.59;5029378;28;20487;-72
2022/11/04 01:14:18;;;;;;;19.73;10.20;;;;;;;11.15;79.88;100774.66;5029582;28;20024;-72
2022/11/04 01:16:43;;;;;;;16.75;9.45;;;;;;;11.14;80.14;100775.47;5029591;28;20403;-72
2022/11/04 01:19:09;;;;;;;18.23;9.98;;;;;;;11.10;80.06;100763.28;5025928;28;20030;-72
2022/11/04 01:21:35;;;;;;;16.35;9.40;;;;;;;10.88;80.13;100729.63;5029408;28;20033;-72
2022/11/04 01:24:01;;;;;;;14.82;9.73;;;;;;;10.92;80.75;100772.88;5029557;28;20026;-72
2022/11/04 01:26:27;;;;;;;18.17;10.00;;;;;;;10.89;81.97;100770.16;5029074;28;20021;-72
2022/11/04 01:28:54;;;;;;;17.90;10.52;;;;;;;10.78;82.79;100756.78;5028060;28;20438;-72
2022/11/04 01:31:23;;;;;;;19.17;9.85;;;;;;;10.82;81.81;100756.97;5029152;28;20394;-72
2022/11/04 01:33:50;;;;;;;18.88;12.32;;;;;;;10.79;79.65;100767.22;5029350;28;20047;-72
2022/11/04 01:36:16;;;;;;;20.17;12.57;;;;;;;10.43;77.66;100709.75;5028863;28;20490;-72
2022/11/04 01:38:42;;;;;;;22.05;12.05;;;;;;;10.40;78.37;100746.66;5029425;28;20132;-72
2022/11/04 01:41:10;;;;;;;19.63;13.35;;;;;;;10.13;79.16;100736.91;5030131;28;20148;-72
2022/11/04 01:43:48;;;;;;;19.65;12.48;;;;;;;10.36;78.14;100753.38;5032535;28;20434;-72
2022/11/04 01:46:37;;;;;;;18.10;11.98;;;;;;;10.41;77.61;100751.00;5032470;28;20038;-72
2022/11/04 01:49:09;;;;;;;19.08;12.70;;;;;;;10.09;77.18;100687.69;5032880;28;20025;-72
2022/11/04 01:51:37;;;;;;;20.75;13.00;;;;;;;10.23;76.90;100737.28;5032870;28;20398;-71
2022/11/04 01:54:05;;;;;;;20.70;13.32;;;;;;;10.26;77.35;100752.91;5032513;28;20135;-69
2022/11/04 01:56:31;;;;;;;21.17;13.15;;;;;;;10.14;77.94;100738.66;5032757;28;20480;-69
2022/11/04 01:59:02;;;;;;;21.77;13.65;;;;;;;9.87;78.12;100692.78;5032566;28;20053;-69
2022/11/04 02:01:27;;;;;;;20.65;13.00;;;;;;;10.16;78.55;100751.63;5033015;28;20034;-69
2022/11/04 02:06:49;;;;;;;25.70;13.35;;;;;;;10.02;79.01;100748.44;5032642;28;20036;-71
2022/11/04 02:09:17;;;;;;;23.63;14.43;;;;;;;9.96;79.16;100743.03;5033026;28;20025;-71
2022/11/04 02:14:27;;;;;;;20.63;14.43;;;;;;;9.88;79.97;100753.88;5032927;28;20632;-71
2022/11/04 02:17:00;;;;;;;24.52;13.85;;;;;;;9.85;80.25;100746.00;5032616;28;20096;-71
2022/11/04 02:19:28;;;;;;;22.13;13.90;;;;;;;9.95;80.64;100749.00;5032636;28;20091;-70
2022/11/04 02:22:00;;;;;;;24.73;14.07;;;;;;;10.07;81.06;100740.88;5032568;28;20528;-69
2022/11/04 02:24:47;;;;;;;23.70;14.20;;;;;;;10.03;81.45;100735.63;5032443;28;20049;-70
2022/11/04 02:27:57;;;;;;;22.05;14.18;;;;;;;9.97;81.86;100749.91;5032307;28;20017;-70
2022/11/04 02:30:23;;;;;;;20.95;13.70;;;;;;;9.93;82.55;100755.78;4990481;28;20101;-70
2022/11/04 02:33:09;;;;;;;22.33;14.00;;;;;;;9.80;82.83;100749.19;4990505;28;20038;-70
2022/11/04 02:35:49;;;;;;;21.15;13.43;;;;;;;9.44;83.96;100716.66;4990154;28;20049;-70
2022/11/04 02:38:21;;;;;;;26.17;13.77;;;;;;;9.59;84.23;100742.25;4990119;28;20572;-69
2022/11/04 02:41:04;;;;;;;20.67;13.77;;;;;;;9.29;83.92;100683.34;4990183;28;20046;-69
2022/11/04 02:43:40;;;;;;;23.88;14.25;;;;;;;9.35;84.36;100713.69;4990201;28;20042;-70
2022/11/04 02:46:31;;;;;;;21.02;14.75;;;;;;;9.25;84.35;100688.31;4990224;28;20049;-70
2022/11/04 02:49:01;;;;;;;24.08;14.85;;;;;;;9.46;84.31;100727.03;4990097;28;20039;-70
2022/11/04 02:51:40;;;;;;;21.90;14.00;;;;;;;9.62;84.76;100732.09;4989542;28;20026;-70
2022/11/04 02:54:11;;;;;;;23.90;14.73;;;;;;;9.75;84.01;100733.50;4989972;28;20038;-69
2022/11/04 02:56:43;;;;;;;22.33;15.68;;;;;;;9.76;83.80;100742.13;4989976;28;20122;-69
2022/11/04 02:59:22;;;;;;;21.05;14.45;;;;;;;9.90;82.97;100737.59;4990159;28;20101;-70
2022/11/04 03:01:51;;;;;;;21.23;15.15;;;;;;;9.84;82.65;100736.53;4990122;28;20126;-69
2022/11/04 03:04:29;;;;;;;21.65;14.93;;;;;;;9.80;82.74;100729.44;4989844;28;20038;-69
2022/11/04 03:06:57;;;;;;;21.90;15.48;;;;;;;9.73;82.72;100714.50;5005826;28;20096;-70
2022/11/04 03:09:24;;;;;;;25.38;15.60;;;;;;;9.89;82.84;100731.53;5031387;28;20408;-70
2022/11/04 03:11:56;;;;;;;26.70;16.80;;;;;;;9.92;83.18;100715.31;5031561;28;20049;-70
2022/11/04 03:14:27;;;;;;;26.80;15.63;;;;;;;10.19;81.91;100734.59;5030137;28;20649;-69
2022/11/04 03:17:00;;;;;;;24.60;17.35;;;;;;;10.10;81.75;100731.59;5031647;28;20033;-70
2022/11/04 03:19:54;;;;;;;27.70;16.13;;;;;;;10.18;81.44;100729.34;5031160;28;20100;-70
2022/11/04 03:22:23;;;;;;;22.48;15.60;;;;;;;10.18;81.55;100729.34;5028793;28;20112;-70
2022/11/04 03:24:50;;;;;;;24.52;14.40;;;;;;;10.18;80.62;100719.91;5028986;28;20112;-70
2022/11/04 03:27:31;;;;;;;20.50;14.48;;;;;;;9.98;80.56;100700.09;5028709;28;20407;-70
2022/11/04 03:30:05;;;;;;;22.67;13.95;;;;;;;9.91;80.02;100682.63;5028748;28;20041;-70
2022/11/04 03:32:50;;;;;;;23.45;13.77;;;;;;;10.12;80.25;100722.22;5028418;28;20519;-70
2022/11/04 03:35:16;;;;;;;26.95;13.60;;;;;;;9.98;80.79;100679.47;5028744;28;20042;-70
2022/11/04 03:37:43;;;;;;;19.60;11.95;;;;;;;10.24;80.90;100708.94;5028290;28;20487;-70
2022/11/04 03:40:10;;;;;;;20.02;11.60;;;;;;;10.26;81.98;100712.50;5028468;28;20060;-70
2022/11/04 03:42:42;;;;;;;23.23;10.93;;;;;;;10.23;82.11;100706.31;5027841;28;20033;-70
2022/11/04 03:45:08;;;;;;;23.73;10.63;;;;;;;10.24;81.32;100720.97;5028238;28;20056;-70
2022/11/04 03:47:35;;;;;;;22.25;11.07;;;;;;;10.18;80.94;100717.34;4995465;28;20435;-70
2022/11/04 03:50:12;;;;;;;18.92;10.20;;;;;;;9.95;80.76;100721.50;5028569;28;20072;-70
2022/11/04 03:52:38;;;;;;;20.35;10.85;;;;;;;9.78;81.54;100712.13;5028564;28;20129;-70
2022/11/04 03:55:06;;;;;;;24.40;12.80;;;;;;;9.83;82.10;100715.78;5028226;28;20085;-70
2022/11/04 03:57:44;;;;;;;24.52;13.20;;;;;;;9.84;82.00;100726.19;5028118;28;20096;-70
2022/11/04 04:00:11;;;;;;;20.15;12.20;;;;;;;9.67;82.22;100714.22;5030401;28;20052;-70
2022/11/04 04:02:54;;;;;;;22.48;12.38;;;;;;;9.66;82.91;100720.22;5030447;28;20424;-70
2022/11/04 04:05:27;;;;;;;19.95;12.27;;;;;;;9.73;83.54;100719.66;5030630;28;20033;-70
2022/11/04 04:08:27;;;;;;;14.48;10.75;;;;;;;9.81;82.81;100718.31;5030666;28;20064;-70
2022/11/04 04:11:23;;;;;;;19.02;11.25;;;;;;;9.81;83.57;100718.31;4988571;28;20038;-70
2022/11/04 04:14:39;;;;;;;19.25;11.45;;;;;;;9.53;82.50;100675.84;4988687;28;20115;-70
2022/11/04 04:17:10;;;;;;;24.98;14.32;;;;;;;9.83;81.85;100715.78;4911733;29;20044;-70
2022/11/04 04:19:36;;;;;;;24.75;16.23;;;;;;;9.91;80.53;100713.56;4911898;29;20054;-70
2022/11/04 04:22:11;;;;;;;22.85;15.52;;;;;;;9.85;79.74;100699.56;4911765;29;20046;-70
2022/11/04 04:27:32;;;;;;;24.70;16.77;;;;;;;9.47;82.37;100693.63;4912178;29;20122;-70
2022/11/04 04:30:11;;;;;;;27.92;16.55;;;;;;;9.18;83.17;100664.84;4911789;29;20403;-70
2022/11/04 04:33:04;;;;;;;31.08;17.27;;;;;;;9.36;84.04;100713.75;4911642;29;20179;-70
2022/11/04 04:35:40;;;;;;;26.73;17.75;;;;;;;9.27;84.21;100725.31;4911648;29;20574;-70
2022/11/04 04:46:36;;;;;;;30.13;17.27;;;;;;;8.85;82.94;100718.22;4911214;29;20470;-70
2022/11/04 04:49:06;;;;;;;26.45;15.45;;;;;;;8.62;83.57;100727.41;4911269;29;20534;-70
2022/11/04 04:51:33;;;;;;;33.92;16.77;;;;;;;8.38;84.27;100730.50;4923342;28;20028;-70
2022/11/04 04:53:59;;;;;;;28.25;17.40;;;;;;;8.10;84.44;100709.41;5020142;28;20025;-69
2022/11/04 04:56:24;;;;;;;25.30;16.50;;;;;;;8.05;84.36;100738.25;5026894;28;20084;-70
2022/11/04 04:58:49;;;;;;;35.70;18.30;;;;;;;7.94;84.43;100733.44;5010144;28;20030;-70
2022/11/04 05:01:15;;;;;;;28.48;15.32;;;;;;;7.88;84.82;100729.69;5009930;28;20040;-70
2022/11/04 05:03:41;;;;;;;30.05;16.98;;;;;;;7.75;85.74;100725.59;5010409;28;20107;-70
2022/11/04 05:06:06;;;;;;;26.05;16.77;;;;;;;7.74;86.15;100731.56;5009435;28;20052;-70
2022/11/04 05:08:34;;;;;;;39.92;23.58;;;;;;;7.82;85.53;100719.97;5010098;28;20057;-70
2022/11/04 05:10:59;;;;;;;39.03;24.75;;;;;;;7.88;85.52;100734.84;5010083;28;20025;-70
2022/11/04 05:13:25;;;;;;;55.80;27.65;;;;;;;7.75;86.02;100731.63;5010161;28;20029;-70
2022/11/04 05:15:51;;;;;;;43.50;26.75;;;;;;;7.78;86.90;100746.31;5012164;28;20026;-71
2022/11/04 05:18:16;;;;;;;34.63;20.35;;;;;;;7.78;87.13;100738.59;5013639;28;20034;-70
2022/11/04 05:20:42;;;;;;;31.83;18.23;;;;;;;7.89;87.25;100745.19;5013127;28;20129;-70
2022/11/04 05:23:10;;;;;;;30.67;17.33;;;;;;;8.02;86.99;100743.25;5012432;28;20041;-70
2022/11/04 05:25:40;;;;;;;34.45;17.85;;;;;;;8.05;87.08;100748.53;5013777;28;20034;-70
2022/11/04 05:28:05;;;;;;;35.63;19.48;;;;;;;7.97;86.61;100703.56;5014161;28;20443;-71
2022/11/04 05:30:31;;;;;;;37.03;20.77;;;;;;;8.28;86.73;100752.31;5011499;28;20026;-71
2022/11/04 05:32:57;;;;;;;34.85;20.52;;;;;;;8.35;86.89;100749.25;5013911;28;20400;-70
2022/11/04 05:35:22;;;;;;;32.95;19.80;;;;;;;8.14;85.59;100695.03;5013521;28;20021;-70
2022/11/04 05:37:48;;;;;;;30.23;18.20;;;;;;;8.51;85.69;100745.78;5013553;28;20099;-71
2022/11/04 05:40:13;;;;;;;30.88;18.25;;;;;;;8.67;86.19;100750.00;5033503;28;20041;-71
2022/11/04 05:42:39;;;;;;;31.20;18.15;;;;;;;8.65;86.70;100753.28;5033227;28;20036;-70
2022/11/04 05:45:05;;;;;;;33.13;18.65;;;;;;;8.67;87.68;100749.09;5033447;28;20036;-70
2022/11/04 05:47:30;;;;;;;31.67;18.70;;;;;;;8.76;88.25;100762.44;5033114;28;20037;-71
2022/11/04 05:49:56;;;;;;;26.33;18.02;;;;;;;8.80;88.05;100761.78;5033051;28;20039;-70
2022/11/04 05:52:21;;;;;;;29.67;19.55;;;;;;;8.87;89.31;100760.38;5032986;28;20475;-70
2022/11/04 05:54:46;;;;;;;27.58;17.98;;;;;;;8.87;88.96;100763.84;5033356;28;20032;-71
2022/11/04 05:57:12;;;;;;;41.17;19.48;;;;;;;8.93;89.51;100773.53;5033280;28;20515;-70
2022/11/04 05:59:37;;;;;;;36.33;19.08;;;;;;;9.01;91.54;100776.47;5033347;28;20092;-70
2022/11/04 06:02:03;;;;;;;26.75;18.27;;;;;;;9.09;90.98;100774.28;5032820;28;20458;-70
2022/11/04 06:04:28;;;;;;;33.47;18.13;;;;;;;9.13;89.61;100774.50;5033167;28;20075;-70
2022/11/04 06:06:54;;;;;;;28.77;16.95;;;;;;;9.19;89.29;100761.91;5032777;28;20071;-70
2022/11/04 06:09:19;;;;;;;31.33;18.40;;;;;;;9.15;88.77;100770.31;5014157;28;20406;-70
2022/11/04 06:11:45;;;;;;;25.60;16.90;;;;;;;9.28;89.19;100765.72;5032872;28;20025;-70
2022/11/04 06:14:11;;;;;;;24.17;17.13;;;;;;;9.25;89.56;100755.31;5032823;28;20029;-71
2022/11/04 06:16:37;;;;;;;29.15;17.50;;;;;;;9.40;89.07;100766.31;5031609;28;20442;-70
2022/11/04 06:19:02;;;;;;;20.73;16.17;;;;;;;9.41;90.06;100772.31;5032596;28;20030;-70
2022/11/04 06:21:30;;;;;;;25.30;16.63;;;;;;;9.42;90.10;100780.16;5032533;28;20491;-70
2022/11/04 06:23:57;;;;;;;27.98;17.00;;;;;;;9.45;91.12;100780.28;5032716;28;20068;-70
2022/11/04 06:26:25;;;;;;;28.40;17.63;;;;;;;9.42;89.82;100782.72;5031778;28;20082;-70
2022/11/04 06:28:50;;;;;;;26.92;17.40;;;;;;;9.35;90.23;100771.25;5032359;28;20392;-70
2022/11/04 06:31:17;;;;;;;24.15;16.63;;;;;;;9.43;89.16;100789.63;5031070;28;20053;-70
2022/11/04 06:33:42;;;;;;;24.60;16.25;;;;;;;9.46;89.44;100788.88;5032359;28;20033;-70
2022/11/04 06:36:12;;;;;;;23.70;15.85;;;;;;;9.21;88.68;100738.81;5032507;28;20059;-70
2022/11/04 06:38:37;;;;;;;23.00;15.65;;;;;;;9.50;88.27;100783.94;5032255;28;20067;-70
2022/11/04 06:41:05;;;;;;;27.02;17.05;;;;;;;9.41;88.49;100764.59;5031798;28;20530;-70
2022/11/04 06:43:31;;;;;;;24.42;15.40;;;;;;;9.48;87.99;100785.59;5032063;28;20483;-70
2022/11/04 06:45:59;;;;;;;23.75;16.00;;;;;;;9.58;88.47;100791.16;5032023;28;20056;-70
2022/11/04 06:48:25;;;;;;;24.15;14.90;;;;;;;9.50;87.59;100773.66;5031869;28;20030;-70
2022/11/04 06:50:50;;;;;;;26.83;15.90;;;;;;;9.45;87.48;100759.66;5032230;28;20025;-70
2022/11/04 06:53:16;;;;;;;23.38;15.00;;;;;;;9.73;87.72;100791.84;5032250;28;20550;-70
2022/11/04 06:55:42;;;;;;;25.75;15.80;;;;;;;9.70;87.91;100779.72;5031784;28;20108;-71
2022/11/04 06:58:09;;;;;;;28.73;16.02;;;;;;;9.57;87.41;100754.22;5031956;28;20025;-70
2022/11/04 07:00:34;;;;;;;25.33;15.98;;;;;;;9.82;87.08;100792.28;5032167;28;20036;-70
2022/11/04 07:03:00;;;;;;;23.90;15.30;;;;;;;9.88;87.15;100789.97;5031853;28;20034;-70
2022/11/04 07:05:25;;;;;;;26.77;15.05;;;;;;;9.94;88.07;100786.78;5031964;28;20578;-71
2022/11/04 07:07:51;;;;;;;24.00;14.93;;;;;;;10.00;88.52;100789.63;5030369;28;20026;-70
2022/11/04 07:10:16;;;;;;;25.35;16.23;;;;;;;10.13;88.40;100793.66;5032005;28;20025;-70
2022/11/04 07:12:42;;;;;;;23.98;15.93;;;;;;;10.26;88.26;100789.91;5031637;28;20026;-70
2022/11/04 07:15:08;;;;;;;23.67;16.17;;;;;;;10.35;88.69;100787.72;5030430;28;20025;-70
2022/11/04 07:17:33;;;;;;;21.30;15.35;;;;;;;10.37;88.99;100798.16;5012795;28;20029;-70
2022/11/04 07:19:59;;;;;;;27.02;16.00;;;;;;;10.35;87.17;100773.94;5031305;28;20033;-70
2022/11/04 07:22:24;;;;;;;22.63;15.10;;;;;;;10.25;86.20;100739.09;5031360;28;20026;-70
2022/11/04 07:24:50;;;;;;;25.40;16.48;;;;;;;10.59;87.04;100789.63;5031447;28;20021;-70
2022/11/04 07:27:15;;;;;;;24.17;15.77;;;;;;;10.71;85.99;100786.66;5031311;28;20025;-70
2022/11/04 07:29:40;;;;;;;22.90;15.40;;;;;;;10.78;86.18;100791.25;5031208;28;20033;-70
2022/11/04 07:32:06;;;;;;;26.30;16.45;;;;;;;10.78;85.90;100783.50;5031208;28;20037;-70
2022/11/04 07:34:31;;;;;;;28.95;16.08;;;;;;;10.87;86.32;100790.75;5031292;28;20040;-70
2022/11/04 07:36:57;;;;;;;28.42;15.52;;;;;;;10.84;85.30;100778.59;5031102;28;20040;-70
2022/11/04 07:39:22;;;;;;;26.38;15.25;;;;;;;10.90;85.12;100785.69;5030612;28;20046;-70
2022/11/04 07:41:48;;;;;;;27.45;16.30;;;;;;;10.94;85.15;100778.97;5031184;28;20056;-70
2022/11/04 07:44:13;;;;;;;24.92;15.85;;;;;;;11.06;85.22;100781.16;5031287;28;20529;-70
2022/11/04 07:46:40;;;;;;;30.05;16.13;;;;;;;11.18;85.39;100766.16;5013174;28;20694;-71
2022/11/04 07:49:06;;;;;;;22.38;14.85;;;;;;;11.20;85.34;100761.03;5030926;28;20032;-70
2022/11/04 07:51:31;;;;;;;26.77;16.60;;;;;;;11.27;84.32;100774.25;5030845;28;20033;-70
2022/11/04 07:53:57;;;;;;;26.58;15.68;;;;;;;11.27;84.12;100768.22;5031080;28;20030;-70
2022/11/04 07:56:24;;;;;;;26.42;15.50;;;;;;;11.02;85.25;100725.91;5030811;28;20065;-70
2022/11/04 07:58:50;;;;;;;22.23;16.20;;;;;;;11.30;84.41;100763.16;5030774;28;20040;-70
2022/11/04 08:01:18;;;;;;;37.90;17.45;;;;;;;11.33;83.72;100750.34;5030896;28;20026;-70
2022/11/04 08:03:44;;;;;;;29.20;16.02;;;;;;;11.49;83.35;100759.59;5030976;28;20095;-70
2022/11/04 08:06:13;;;;;;;27.85;15.70;;;;;;;11.51;83.61;100755.31;5030815;28;20032;-70
2022/11/04 08:08:40;;;;;;;26.63;16.63;;;;;;;11.47;83.99;100758.63;5031048;28;20029;-70
2022/11/04 08:11:14;;;;;;;22.70;16.10;;;;;;;11.55;85.36;100744.31;5030927;28;20037;-70
2022/11/04 08:13:39;;;;;;;28.95;17.02;;;;;;;11.60;84.57;100744.44;5030657;28;20491;-70
2022/11/04 08:16:12;;;;;;;26.05;18.48;;;;;;;11.66;84.75;100744.69;5030657;28;20018;-70
2022/11/04 08:18:39;;;;;;;29.65;19.17;;;;;;;11.77;85.36;100738.19;5030372;28;20032;-70
2022/11/04 08:21:04;;;;;;;27.42;18.98;;;;;;;11.85;84.92;100730.72;5031013;28;20061;-70
2022/11/04 08:23:31;;;;;;;25.85;17.35;;;;;;;11.58;83.18;100684.94;5030690;28;20538;-70
2022/11/04 08:25:57;;;;;;;27.65;17.83;;;;;;;11.89;82.87;100731.72;5030428;28;20041;-70
2022/11/04 08:28:23;;;;;;;26.83;17.98;;;;;;;11.94;82.53;100728.44;5030276;28;20523;-70
2022/11/04 08:30:55;;;;;;;26.83;17.80;;;;;;;12.04;83.05;100724.53;5030583;28;20021;-70
2022/11/04 08:33:21;;;;;;;24.52;18.13;;;;;;;12.05;83.55;100708.19;5030135;28;20466;-70
2022/11/04 08:35:46;;;;;;;26.75;17.52;;;;;;;12.17;83.01;100717.19;5011557;28;20037;-71
2022/11/04 08:38:12;;;;;;;28.10;17.27;;;;;;;12.21;82.19;100706.09;5030313;28;20160;-70
2022/11/04 08:40:37;;;;;;;28.80;18.02;;;;;;;12.29;82.65;100705.53;5029535;28;20091;-70
2022/11/04 08:43:03;;;;;;;29.42;17.25;;;;;;;12.39;82.78;100705.84;5030049;28;20025;-70
2022/11/04 08:45:28;;;;;;;29.45;17.60;;;;;;;12.36;81.25;100701.47;5030142;28;20030;-70
2022/11/04 08:47:54;;;;;;;31.63;18.83;;;;;;;12.20;81.97;100684.53;5030453;28;20036;-70
2022/11/04 08:50:20;;;;;;;28.85;19.02;;;;;;;12.25;85.47;100695.91;5031715;28;20069;-70
2022/11/04 08:52:46;;;;;;;30.35;18.33;;;;;;;12.27;87.46;100709.78;5034578;28;20049;-70
2022/11/04 08:55:11;;;;;;;29.50;18.42;;;;;;;12.26;86.68;100697.69;5034764;28;20036;-70
2022/11/04 08:57:38;;;;;;;30.80;19.88;;;;;;;12.30;86.73;100699.53;5034140;28;20121;-70
2022/11/04 09:00:05;;;;;;;34.38;19.85;;;;;;;12.38;87.05;100693.72;5034442;28;20065;-70
2022/11/04 09:02:30;;;;;;;36.42;21.35;;;;;;;12.48;87.63;100690.59;5034181;28;20078;-70
2022/11/04 09:04:56;;;;;;;35.58;21.65;;;;;;;12.57;87.33;100682.25;4999056;28;20033;-70
2022/11/04 09:07:21;;;;;;;32.70;21.20;;;;;;;12.32;87.29;100628.81;5034105;28;20043;-70
2022/11/04 09:09:47;;;;;;;31.40;21.15;;;;;;;12.62;87.34;100667.75;5034165;28;20037;-70
2022/11/04 09:12:12;;;;;;;33.30;21.48;;;;;;;12.30;87.90;100618.41;5032859;28;20037;-70
2022/11/04 09:14:38;;;;;;;31.85;20.15;;;;;;;12.38;88.40;100621.25;5033873;28;20033;-70
2022/11/04 09:17:03;;;;;;;33.53;20.45;;;;;;;12.54;88.45;100651.97;5034272;28;20531;-70
2022/11/04 09:19:29;;;;;;;37.97;21.10;;;;;;;12.66;88.05;100654.06;5033762;28;20534;-70
2022/11/04 09:21:54;;;;;;;34.15;20.20;;;;;;;12.64;88.94;100628.97;5014956;28;20045;-70
2022/11/04 09:24:19;;;;;;;34.05;21.05;;;;;;;12.77;89.45;100639.75;5033849;28;20041;-70
2022/11/04 09:26:45;;;;;;;34.08;20.73;;;;;;;12.86;89.20;100641.72;5033504;28;20402;-70
2022/11/04 09:29:10;;;;;;;34.42;21.40;;;;;;;12.83;88.91;100625.22;5033754;28;20026;-70
2022/11/04 09:31:36;;;;;;;38.63;20.60;;;;;;;12.97;88.74;100631.66;5033410;28;20030;-70
2022/11/04 09:34:02;;;;;;;36.72;22.20;;;;;;;12.97;87.99;100618.72;5032297;28;20030;-70
2022/11/04 09:36:30;;;;;;;34.05;20.33;;;;;;;13.19;87.88;100637.50;5032629;28;20034;-70
2022/11/04 09:38:56;;;;;;;33.13;19.77;;;;;;;13.23;88.34;100621.19;5032811;28;20053;-70
2022/11/04 09:41:54;;;;;;;30.98;20.77;;;;;;;13.39;88.48;100619.94;5030129;28;20041;-69
2022/11/04 09:44:47;;;;;;;32.30;20.45;;;;;;;13.38;87.73;100618.19;5018898;28;20419;-75
2022/11/04 09:47:13;;;;;;;28.55;20.33;;;;;;;13.36;88.06;100609.47;5017157;28;20021;-74
2022/11/04 09:49:43;;;;;;;33.85;20.95;;;;;;;13.43;89.88;100606.22;5032674;28;20060;-74
2022/11/04 09:52:22;;;;;;;30.75;19.83;;;;;;;13.52;90.53;100596.13;5032851;28;20440;-77
2022/11/04 09:54:58;;;;;;;31.60;22.15;;;;;;;13.63;91.77;100598.97;5047768;28;20506;-77
2022/11/04 09:57:23;;;;;;;149.60;28.35;;;;;;;13.67;91.29;100572.28;5032371;28;20018;-76
2022/11/04 09:59:49;;;;;;;31.27;20.42;;;;;;;13.98;91.06;100574.78;5032244;28;20056;-74
2022/11/04 10:02:28;;;;;;;30.30;19.67;;;;;;;13.82;90.24;100525.09;5032340;28;20585;-74
2022/11/04 10:05:22;;;;;;;29.20;19.75;;;;;;;14.22;89.94;100574.50;5032507;28;20108;-75
2022/11/04 10:08:26;;;;;;;26.73;18.88;;;;;;;14.29;90.36;100570.31;5032360;28;20084;-75
2022/11/04 10:11:07;;;;;;;30.23;19.90;;;;;;;14.62;88.28;100556.34;4969938;28;20046;-73
2022/11/04 10:13:46;;;;;;;32.65;20.77;;;;;;;14.65;87.66;100540.84;4970721;28;20194;-74
2022/11/04 10:16:23;;;;;;;28.20;19.35;;;;;;;14.90;86.99;100538.75;4969353;28;20046;-74
2022/11/04 10:19:10;;;;;;;30.95;20.13;;;;;;;14.95;86.30;100538.00;4970129;28;20047;-73
2022/11/04 10:22:14;;;;;;;30.88;18.88;;;;;;;15.11;85.13;100527.91;4970515;28;20093;-78
2022/11/04 10:24:45;;;;;;;28.45;19.13;;;;;;;15.22;84.49;100534.19;4863745;29;20419;-75
2022/11/04 10:27:18;;;;;;;25.00;17.83;;;;;;;15.38;83.56;100519.75;4885281;29;20101;-76
2022/11/04 10:29:53;;;;;;;26.25;18.80;;;;;;;15.30;82.41;100471.91;4860270;29;20059;-75
2022/11/04 10:32:30;;;;;;;27.65;18.60;;;;;;;15.47;81.74;100478.28;4875028;29;20037;-78
2022/11/04 10:35:33;;;;;;;31.58;19.25;;;;;;;15.72;80.47;100490.84;4875268;29;20558;-77
2022/11/04 10:38:14;;;;;;;26.88;19.33;;;;;;;15.78;80.72;100483.13;4841132;29;20048;-78
2022/11/04 10:40:41;;;;;;;27.70;18.35;;;;;;;15.91;80.05;100466.84;4837956;29;20038;-80
2022/11/04 10:43:12;;;;;;;35.08;19.23;;;;;;;15.96;79.41;100469.53;4838863;29;20061;-79
2022/11/04 10:46:00;;;;;;;28.08;19.33;;;;;;;16.06;78.65;100461.00;4883605;29;20079;-78
2022/11/04 10:48:39;;;;;;;27.10;18.48;;;;;;;16.17;78.39;100454.22;4891794;29;20096;-77
2022/11/04 10:51:05;;;;;;;28.08;18.63;;;;;;;16.32;77.04;100447.47;4890478;29;20032;-80
2022/11/04 10:53:32;;;;;;;26.63;17.83;;;;;;;16.22;77.07;100427.38;4892356;29;20076;-79
2022/11/04 10:56:04;;;;;;;31.60;18.58;;;;;;;16.43;77.61;100448.47;4877071;29;20103;-79
2022/11/04 10:58:31;;;;;;;23.95;17.00;;;;;;;16.56;76.85;100448.63;4891644;29;20039;-75
2022/11/04 11:00:58;;;;;;;33.10;19.40;;;;;;;16.65;76.25;100447.00;4916797;28;20034;-81
2022/11/04 11:03:31;;;;;;;27.00;18.73;;;;;;;16.66;76.13;100437.47;4987091;28;20141;-77
2022/11/04 11:06:14;;;;;;;24.50;18.33;;;;;;;16.62;76.27;100431.34;4984571;28;20041;-75
2022/11/04 11:08:41;;;;;;;27.77;18.13;;;;;;;16.47;75.82;100399.88;4989383;28;20423;-77
2022/11/04 11:11:08;;;;;;;33.83;18.65;;;;;;;16.78;76.42;100426.28;4989410;28;20061;-73
2022/11/04 11:13:37;;;;;;;31.50;17.60;;;;;;;16.88;75.55;100425.50;4982749;28;20522;-74
2022/11/04 11:16:07;;;;;;;29.45;17.00;;;;;;;16.93;74.96;100421.25;5010030;28;20081;-80
2022/11/04 11:18:33;;;;;;;24.08;17.52;;;;;;;16.99;74.71;100410.03;5041745;28;20053;-78
2022/11/04 11:21:20;;;;;;;24.17;16.95;;;;;;;17.06;74.44;100417.06;5022057;28;20021;-79
2022/11/04 11:23:47;;;;;;;25.58;17.80;;;;;;;17.10;74.33;100403.16;5011450;28;20735;-78
2022/11/04 11:26:19;;;;;;;25.08;17.92;;;;;;;17.19;74.32;100407.59;5018454;28;20026;-78
2022/11/04 11:29:00;;;;;;;23.63;17.27;;;;;;;17.26;74.12;100396.34;5019409;28;20049;-79
2022/11/04 11:31:35;;;;;;;26.13;17.00;;;;;;;17.38;73.54;100381.66;5010730;28;20037;-77
2022/11/04 11:34:17;;;;;;;25.15;16.48;;;;;;;17.29;73.50;100372.88;5025090;28;20037;-80
2022/11/04 11:36:46;;;;;;;26.00;16.38;;;;;;;17.22;74.83;100378.94;5010786;28;20033;-74
2022/11/04 11:39:20;;;;;;;22.48;14.93;;;;;;;17.22;74.22;100371.09;5010404;28;20411;-76
2022/11/04 11:42:06;;;;;;;22.65;17.02;;;;;;;17.26;74.20;100366.78;5025652;28;20129;-78
2022/11/04 11:44:48;;;;;;;26.17;17.58;;;;;;;17.16;74.94;100359.72;5015695;28;20458;-74
2022/11/04 11:47:19;;;;;;;22.30;15.63;;;;;;;17.12;74.80;100344.06;5010614;28;20021;-75
2022/11/04 11:49:44;;;;;;;24.48;17.23;;;;;;;17.17;75.56;100338.91;5010033;28;20134;-76
2022/11/04 11:52:25;;;;;;;25.17;16.70;;;;;;;17.35;74.55;100348.59;5012820;28;20025;-75
2022/11/04 11:54:57;;;;;;;27.92;16.38;;;;;;;17.43;73.61;100349.53;5017141;28;20025;-78
2022/11/04 11:57:45;;;;;;;26.15;16.83;;;;;;;17.50;73.48;100337.38;5029433;28;20094;-78
2022/11/04 12:00:15;;;;;;;24.98;16.35;;;;;;;17.62;73.95;100332.22;5030278;28;20526;-78